This is the latest recevied weather packets stored in our database for station/object VE2CSM-13. If no packets are shown the sender has not sent any weather packets the latest 10 day(s).
| Time | Temp. | Humidity | Pressure | Rain* | Wind** | Luminosity | Snow |
|---|---|---|---|---|---|---|---|
| 1777495102 | 16.11° C | 58% | 1020.4 hPa | 0 mm | - | - | - |
| 1777495042 | 16.11° C | 58% | 1020.4 hPa | 0 mm | - | - | - |
| 1777494983 | 16.11° C | 58% | 1020.4 hPa | 0 mm | - | - | - |
| 1777494176 | 16.11° C | 57% | 1020.4 hPa | 0 mm | - | - | - |
| 1777490577 | 17.78° C | 41% | 1020.8 hPa | 0 mm | - | - | - |
| 1777486977 | 17.78° C | 41% | 1021.3 hPa | 0 mm | - | - | - |
| 1777483377 | 17.22° C | 41% | 1021.5 hPa | 0 mm | - | - | - |
| 1777479777 | 18.33° C | 37% | 1022.1 hPa | 0 mm | - | - | - |
| 1777476177 | 17.78° C | 36% | 1022.8 hPa | 0 mm | - | - | - |
| 1777472577 | 16.67° C | 36% | 1023.3 hPa | 0 mm | - | - | - |
| 1777470776 | 16.67° C | 36% | 1023.5 hPa | 0 mm | - | - | - |
| 1777468977 | 15.56° C | 37% | 1024.1 hPa | 0 mm | - | - | - |
| 1777467176 | 13.89° C | 39% | 1024.5 hPa | 0 mm | - | - | - |
| 1777465376 | 12.22° C | 41% | 1024.8 hPa | 0 mm | - | - | - |
| 1777461777 | 12.22° C | 40% | 1024.7 hPa | 0 mm | - | - | - |
| 1777458177 | 11.11° C | 45% | 1024.7 hPa | 0 mm | - | - | - |
| 1777454577 | 11.11° C | 50% | 1024.3 hPa | 0 mm | - | - | - |
| 1777450978 | 10.56° C | 51% | 1024.3 hPa | 0 mm | - | - | - |
| 1777448217 | 11.11° C | 52% | 1024.3 hPa | 0 mm | - | - | - |
| 1777446297 | 12.22° C | 49% | 1024.2 hPa | 0 mm | - | - | - |
| 1777445337 | 13.33° C | 46% | 1023.9 hPa | 0 mm | - | - | - |
| 1777444856 | 13.33° C | 45% | 1024.2 hPa | 0 mm | - | - | - |
| 1777444377 | 13.33° C | 45% | 1024.3 hPa | 0 mm | - | - | - |
| 1777443898 | 13.89° C | 44% | 1024.1 hPa | 0 mm | - | - | - |
| 1777443416 | 13.89° C | 43% | 1024.3 hPa | 0 mm | - | - | - |
* Rain latest hour (hover to see other rain measurements)
** Current wind speed in m/s (hover to see current wind gust speed)